Des Moines, IA

7:17 PM CDT on August 30, 2016 (GMT -0500)
IADOT | | Change Station

Elev 859 ft 41.66 °N, 93.52 °W | Updated 27 minutes ago

Overcast
Overcast
78.0 °F
Feels Like 80 °F
N
4.0
Wind Variable Wind from North
Gusts 6.0 mph

Today
High -- | Low -- °F
--% Chance of Precip.
Yesterday
High -- | Low -- °F
Precip. -- in
Pressure 30.08 in
Visibility 10.0 miles
Clouds Few 3100 ft
Mostly Cloudy 14000 ft
Mostly Cloudy 18000 ft
Overcast 30000 ft
Heat Index 80 °F
Dew Point 71.0 °F
Humidity 80%
Rainfall in
Snow Depth Not available.
6:38 AM 7:49 PM
Waning Crescent, 2% visible
METAR KDSM 302354Z 35005KT 10SM FEW031 BKN140 BKN180 OVC300 26/21 A3010 RMK AO2 SLP186 60000 T02610206 10283 20261 56003
Pressure 30.08 in
Visibility 10.0 miles
Clouds Few 3100 ft
Mostly Cloudy 14000 ft
Mostly Cloudy 18000 ft
Overcast 30000 ft
Heat Index 80 °F
Dew Point 71.0 °F
Humidity 80%
Rainfall in
Snow Depth Not available.
6:38 AM 7:49 PM
Waning Crescent, 2% visible
METAR KDSM 302354Z 35005KT 10SM FEW031 BKN140 BKN180 OVC300 26/21 A3010 RMK AO2 SLP186 60000 T02610206 10283 20261 56003

10-Day Weather Forecast

Almanac

Astronomy

Aug. 30, 2016 Rise Set
Actual Time
Civil Twilight
Nautical Twilight
Astronomical Twilight
Moon
Length of Visible Light
Length of Day
Tomorrow will be .
, % of the Moon is Illuminated

Today's Extremes

State Highs State Lows

Community

WunderPhotos

Upload Photos

1,935,960 photos uploaded!

WunderBlog® & News

Nearby

Air Quality

  Air Quality AQ Index Pollutant
Not available.

Snow Depth

Station Depth Elevation

Earthquake Activity

City Distance Mag. Time & Date
Minimum magnitude displayed is 2.5.

Coastal Water Temperatures

Place Temperature

Stations

Nearby Weather Stations

Station Location Temp. Windchill Dew Point Humidity Wind Precip. Elev Updated Type
                   

Watches & Warnings

There are currently no watches in effect.